Station: Falls Creek  

  Atmospheric Gas Attenuation - ITU Rec 676-11   ----------------- dB/100km -----------------
Date Time Temp RH % AH g/m3 Dew Point Wind Direction Speed kph Gust kph Barometer mB Rainfall Since 9am 24GHz 47GHz 76GHz 122GHz 134GHz 241GHz
08/05 12:30 3.9 91 5.75 2.6 41 52 1018.9 0 13.9 24.2 33.0 86.1 71.5 242.8
08/05 12:20 3.9 93 5.88 2.9 41 46 1018.9 0 14.2 24.4 33.5 87.5 73.3 249.0
08/05 12:10 3.9 94 5.94 3 35 41 1019.1 0 14.3 24.5 33.8 88.2 74.1 251.9
08/05 12:00 3.5 96 5.91 2.9 35 46 1019.1 0 14.2 24.6 33.8 88.3 74.1 251.8
08/05 11:50 3.2 99 5.97 3.1 41 44 1019.2 0 14.4 24.8 34.2 89.4 75.2 255.7
08/05 11:40 2.8 99 5.81 2.7 28 32 1019.4 0 14.1 24.6 33.7 88.0 73.4 249.3
08/05 11:30 2.4 99 5.66 2.3 26 37 1019.3 0 13.7 24.5 33.3 86.8 71.7 243.2
08/05 11:20 2.1 99 5.54 2 22 28 1019.4 0 13.5 24.4 32.9 85.8 70.3 238.4
08/05 11:10 1.9 99 5.47 1.8 17 22 1019.4 0 13.4 24.3 32.7 85.2 69.5 235.6
08/05 11:00 1.7 99 5.4 1.6 20 33 1019.3 0 13.2 24.3 32.5 84.7 68.7 232.8
08/05 10:50 1.7 99 5.4 1.6 22 28 1019.1 0 13.2 24.2 32.5 84.7 68.7 232.8
08/05 10:40 1.5 99 5.32 1.4 22 28 1019 0 13.0 24.2 32.2 84.0 67.8 229.5
08/05 10:30 1.2 99 5.22 1.1 22 43 1018.9 0 12.8 24.1 31.9 83.2 66.7 225.5
08/05 10:20 1 99 5.14 0.9 22 32 1018.6 0 12.7 24.0 31.6 82.5 65.7 222.2
08/05 10:10 0.8 99 5.07 0.7 30 41 1018.5 0 12.5 23.9 31.4 81.9 64.9 219.3
08/05 10:00 0.9 99 5.11 0.8 28 46 1018.6 0 12.6 24.0 31.6 82.2 65.4 221.0
08/05 09:50 0.9 99 5.11 0.8 30 35 1018.5 0 12.6 24.0 31.6 82.2 65.4 221.0
08/05 09:40 0.8 99 5.07 0.7 30 35 1018.3 0 12.5 23.9 31.4 81.9 64.9 219.3
08/05 09:30 0.7 99 5.04 0.6 37 59 1018.1 0 12.5 23.9 31.3 81.6 64.6 218.1
08/05 09:20 0.6 99 5.01 0.5 46 59 1017.8 0 12.4 23.8 31.2 81.4 64.2 216.9
08/05 09:10 0.5 99 4.97 0.4 35 43 1018 0 12.3 23.8 31.1 81.0 63.8 215.2
08/05 09:00 0.4 99 4.94 0.3 35 54 1018.2 0 12.3 23.8 31.0 80.8 63.5 214.1
08/05 08:50 0.4 99 4.94 0.3 32 43 1018 1.2 12.3 23.8 31.0 80.8 63.5 214.1
08/05 08:40 0.4 99 4.94 0.3 41 50 1017.6 1.2 12.3 23.8 31.0 80.8 63.4 214.0
08/05 08:30 0.3 99 4.9 0.2 37 54 1017.6 1.2 12.2 23.7 30.9 80.4 63.0 212.3
08/05 08:20 0.2 99 4.87 0.1 30 43 1018 1.2 12.1 23.7 30.8 80.2 62.7 211.2
08/05 08:10 0.1 99 4.84 0 28 35 1017.9 1.2 12.1 23.7 30.7 80.0 62.3 210.1
08/05 08:00 0.2 99 4.87 0.1 26 43 1017.7 1.2 12.1 23.7 30.8 80.2 62.6 211.2
08/05 07:50 0 99 4.8 -0.1 22 30 1017.8 1.2 12.0 23.7 30.6 79.7 61.9 208.4
08/05 07:40 0.1 99 4.84 0 24 30 1017.6 1.2 12.1 23.7 30.7 80.0 62.3 210.0
08/05 07:30 0 99 4.8 -0.1 28 43 1017.3 1.2 12.0 23.6 30.6 79.6 61.8 208.3
08/05 07:20 -0.1 99 4.77 -0.2 26 35 1017.4 1.2 11.9 23.6 30.5 79.4 61.5 207.1
08/05 07:10 -0.1 99 4.77 -0.2 24 30 1017.3 1.2 11.9 23.6 30.5 79.4 61.5 207.1
08/05 07:00 -0.1 99 4.77 -0.2 24 39 1017.2 1.2 11.9 23.6 30.5 79.4 61.5 207.1
08/05 06:50 -0.1 99 4.77 -0.2 24 28 1017.1 1.2 11.9 23.6 30.5 79.4 61.5 207.1
08/05 06:40 -0.1 99 4.77 -0.2 26 33 1017 1.2 11.9 23.6 30.5 79.4 61.5 207.1
08/05 06:30 -0.1 99 4.77 -0.2 30 46 1016.8 1.2 11.9 23.6 30.5 79.3 61.5 207.0
08/05 06:20 -0.3 99 4.7 -0.4 19 26 1017.1 1.2 11.8 23.5 30.3 78.8 60.7 204.2
08/05 06:10 -0.7 99 4.58 -0.8 11 17 1017.3 1.2 11.5 23.5 29.9 77.9 59.4 199.5
08/05 06:00 -0.6 99 4.61 -0.7 13 28 1017.1 1.2 11.6 23.5 30.0 78.1 59.7 200.7
08/05 05:50 -1.2 99 4.42 -1.3 7 11 1017 1.2 11.2 23.3 29.4 76.6 57.5 193.0
08/05 05:40 -1.1 99 4.45 -1.2 11 17 1016.9 1 11.2 23.3 29.5 76.8 57.9 194.2
08/05 05:30 -1 99 4.48 -1.1 20 39 1016.7 1 11.3 23.3 29.6 77.0 58.2 195.4
08/05 05:20 -1 99 4.48 -1.1 19 24 1016.8 1 11.3 23.3 29.6 77.0 58.2 195.4
08/05 05:10 -1.2 99 4.42 -1.3 24 32 1016.5 1 11.2 23.3 29.4 76.5 57.5 193.0
08/05 05:00 -1.3 99 4.39 -1.4 22 35 1016.5 1 11.1 23.3 29.3 76.3 57.2 191.8
08/05 04:50 -1 99 4.48 -1.1 26 32 1016.3 1 11.3 23.3 29.6 77.0 58.2 195.3
08/05 04:40 -0.7 99 4.58 -0.8 24 33 1016.4 1 11.5 23.4 29.9 77.8 59.3 199.4
08/05 04:30 -0.8 99 4.54 -0.9 24 41 1016.5 1 11.4 23.4 29.8 77.5 58.8 197.7
08/05 04:20 -0.5 99 4.64 -0.6 26 33 1016.3 1 11.6 23.5 30.1 78.3 60.0 201.7
08/05 04:10 -0.7 99 4.58 -0.8 26 35 1016.2 1 11.5 23.4 29.9 77.8 59.3 199.3
08/05 04:00 -0.9 99 4.51 -1 22 35 1016.3 1 11.4 23.3 29.7 77.2 58.5 196.5
08/05 03:50 -0.4 99 4.67 -0.5 28 35 1016.2 1 11.7 23.5 30.1 78.5 60.3 202.9
08/05 03:40 -0.5 99 4.64 -0.6 24 30 1016.4 1 11.6 23.5 30.1 78.3 60.0 201.7
08/05 03:30 -0.5 99 4.64 -0.6 26 41 1016.2 1 11.6 23.5 30.1 78.2 60.0 201.7
08/05 03:20 -0.6 99 4.61 -0.7 24 30 1016.5 1 11.6 23.4 30.0 78.0 59.7 200.6
08/05 03:10 -1.1 99 4.45 -1.2 15 20 1016.8 1 11.2 23.3 29.5 76.8 57.9 194.2
08/05 03:00 -1.1 99 4.45 -1.2 17 28 1016.6 1 11.2 23.3 29.5 76.8 57.8 194.2
08/05 02:50 -1.2 99 4.42 -1.3 20 28 1016.5 1 11.2 23.3 29.4 76.5 57.5 193.0
08/05 02:40 -1.5 99 4.33 -1.6 19 24 1016.8 1 11.0 23.2 29.2 75.9 56.5 189.4
08/05 02:30 -1.4 99 4.36 -1.5 20 35 1016.6 1 11.1 23.2 29.2 76.1 56.8 190.6
08/05 02:20 -0.8 99 4.54 -0.9 24 30 1016.3 1 11.4 23.4 29.8 77.4 58.8 197.7
08/05 02:10 -1.1 99 4.45 -1.2 17 22 1016.6 1 11.2 23.3 29.5 76.8 57.8 194.2
08/05 02:00 -1.2 99 4.42 -1.3 20 32 1016.6 1 11.2 23.3 29.4 76.5 57.5 193.0
08/05 01:50 -1.3 99 4.39 -1.4 26 35 1016.5 1 11.1 23.3 29.3 76.3 57.2 191.8
08/05 01:40 -1.3 99 4.39 -1.4 22 30 1016.6 1 11.1 23.3 29.3 76.3 57.2 191.8
08/05 01:30 -1.3 99 4.39 -1.4 20 33 1016.8 1 11.1 23.3 29.3 76.3 57.2 191.8
08/05 01:20 -1.3 99 4.39 -1.4 20 28 1017 1 11.1 23.3 29.3 76.3 57.2 191.8
08/05 01:10 -1.5 99 4.33 -1.6 13 20 1017 1 11.0 23.2 29.2 75.9 56.5 189.5
08/05 01:00 -1.4 99 4.36 -1.5 20 33 1016.9 1 11.1 23.3 29.3 76.1 56.9 190.6
08/05 00:50 -1.5 99 4.33 -1.6 22 28 1017.1 1 11.0 23.2 29.2 75.9 56.5 189.5
08/05 00:40 -1.4 99 4.36 -1.5 15 19 1017.3 0.8 11.1 23.3 29.3 76.1 56.9 190.7
08/05 00:30 -1.8 99 4.24 -1.9 9 17 1017.3 0.8 10.8 23.2 28.9 75.2 55.5 185.9
08/05 00:20 -1.9 99 4.21 -2 11 13 1017.3 0.8 10.8 23.1 28.8 75.0 55.2 184.7
08/05 00:10 -2.1 99 4.15 -2.2 15 20 1017.5 0.8 10.6 23.1 28.7 74.5 54.5 182.3
08/05 00:00 -2.2 99 4.12 -2.3 11 26 1017.4 0.8 10.6 23.1 28.6 74.3 54.2 181.1
07/05 23:50 -2.2 99 4.12 -2.3 11 13 1017.3 0.8 10.6 23.1 28.6 74.3 54.2 181.1
07/05 23:40 -2.2 99 4.12 -2.3 15 20 1017.1 0.8 10.6 23.1 28.6 74.2 54.2 181.0
07/05 23:30 -2.2 99 4.12 -2.3 17 30 1017.1 0.8 10.6 23.1 28.6 74.2 54.2 181.0
07/05 23:20 -2.3 99 4.09 -2.4 19 22 1017.4 0.8 10.5 23.1 28.5 74.0 53.8 179.9
07/05 23:10 -2.2 99 4.12 -2.3 19 28 1017.4 0.8 10.6 23.1 28.6 74.3 54.2 181.1
07/05 23:00 -2.5 99 4.04 -2.6 20 33 1017.4 0.8 10.4 23.0 28.4 73.7 53.3 177.9
07/05 22:50 -2.6 99 4.01 -2.7 19 24 1017.3 0.8 10.3 23.0 28.3 73.4 52.9 176.7
07/05 22:40 -2.5 99 4.04 -2.6 15 32 1017.5 0.8 10.4 23.0 28.4 73.7 53.3 177.9
07/05 22:30 -2.6 99 4.01 -2.7 13 26 1017.4 0.8 10.3 23.0 28.3 73.4 53.0 176.7
07/05 22:20 -2.7 99 3.98 -2.8 17 20 1017.8 0.6 10.3 23.0 28.2 73.2 52.6 175.6
07/05 22:10 -2.8 99 3.95 -2.9 11 13 1017.8 0.6 10.2 23.0 28.1 73.0 52.3 174.3
07/05 22:00 -2.8 99 3.95 -2.9 19 28 1017.6 0.6 10.2 23.0 28.1 73.0 52.3 174.3
07/05 21:50 -2.9 99 3.92 -3 19 24 1017.6 0.6 10.2 22.9 28.0 72.7 51.9 173.1
07/05 21:40 -3 99 3.9 -3.1 11 13 1017.6 0.6 10.1 22.9 28.0 72.6 51.7 172.4
07/05 21:30 -3 99 3.9 -3.1 15 28 1017.6 0.6 10.1 22.9 28.0 72.6 51.7 172.4
07/05 21:20 -3 99 3.9 -3.1 17 33 1017.6 0.6 10.1 22.9 28.0 72.6 51.7 172.4
07/05 21:10 -3 99 3.9 -3.1 13 15 1017.4 0.4 10.1 22.9 28.0 72.6 51.7 172.3
07/05 21:00 -2.9 99 3.92 -3 20 33 1017.3 0.4 10.2 22.9 28.0 72.7 51.9 173.0
07/05 20:50 -3.1 99 3.87 -3.2 19 26 1017.5 0.4 10.1 22.9 27.9 72.4 51.4 171.1
07/05 20:40 -3.1 99 3.87 -3.2 13 17 1017.6 0.4 10.1 22.9 27.9 72.4 51.4 171.1
07/05 20:30 -3.2 99 3.84 -3.3 11 19 1017.4 0.4 10.0 22.9 27.8 72.1 51.0 169.9
07/05 20:20 -3.1 99 3.87 -3.2 9 15 1017.4 0.4 10.1 22.9 27.9 72.4 51.4 171.1
07/05 20:10 -3.1 99 3.87 -3.2 7 9 1017.6 0.4 10.1 22.9 27.9 72.4 51.4 171.1
07/05 20:00 -3.2 99 3.84 -3.3 7 13 1017.4 0.4 10.0 22.9 27.8 72.1 51.0 169.9

Last Refresh: 08-May-2026 12:07:28

Bureau of Meteorology